Dona, Louisiana
Current Conditions -  °F | °C
As of 9:56 AM on Thursday 29 Jan 2015 (Local Time) from KSHV Reporting Station
Broken Clouds Broken Clouds  
Wind Chill: 63°   Ceiling: 28000
Heat Index: 63°   Visibility: 10mi
Dew Point: 55°   Wind: 12mph
Humidity: 75%   Direction: 250°WSW
Pressure: 30.2"   Gusts: NA
Location:  32.117°N, 93.8044°W
Report Text: KSHV 291556Z 25010KT 10SM FEW018 FEW110 SCT150 BKN280 17/13 A3020 RMK AO2 SLP223 T01720128
Loading
Personal Weather Stations






























Interactive Weather Map New forecast layout! Learn more

10-Day Weather Forecast

Advertisements
Track Severe Weather on mobile